Terminal Aerodrome Forecast
Issued by NWS

Home | Current Version | Previous Version | Text Only | Print | Product List | Glossary On
Versions: 1 2 3 4 5 6 7 8 9 10 11 12 13 14 15 16 17 18
000
FTUS44 KEPZ 040313 AAA
TAFDMN
TAF AMD
KDMN 040313Z 0403/0424 05012KT P6SM VCTS BKN070CB BKN250
      TEMPO 0403/0405 VRB25G35KT -TSRA BKN040CB
     FM040600 06007KT P6SM SCT080 BKN250
     FM042100 18011KT P6SM SCT080 SCT250=

USA.gov is the U.S. government's official web portal to all federal, state and local government web resources and services.